Time;durP1;ratioP1;P1;durP2;ratioP2;P2;SDS_P1;SDS_P2;PMS_P1;PMS_P2;Temp;Humidity;BMP_temperature;BMP_pressure;BME280_temperature;BME280_humidity;BME280_pressure;Samples;Min_cycle;Max_cycle;Signal;HPM_P1;HPM_P2
2021/01/19 00:02:19;;;;;;;68.13;24.80;;;-14.40;77.30;;;;;;5095263;28;20089;-87
2021/01/19 00:04:45;;;;;;;64.47;24.27;;;-14.50;78.10;;;;;;5095546;28;20060;-86
2021/01/19 00:07:12;;;;;;;57.47;22.07;;;-14.30;78.10;;;;;;5095061;28;20024;-86
2021/01/19 00:09:40;;;;;;;60.47;22.60;;;-14.40;77.90;;;;;;5116610;28;20523;-87
2021/01/19 00:12:06;;;;;;;52.57;21.50;;;-14.30;77.80;;;;;;5115413;28;20027;-86
2021/01/19 00:14:31;;;;;;;57.17;20.83;;;-14.40;77.70;;;;;;5114251;28;20126;-87
2021/01/19 00:16:58;;;;;;;63.27;22.27;;;-14.30;77.60;;;;;;5097966;28;20156;-86
2021/01/19 00:19:24;;;;;;;62.70;21.67;;;-14.30;77.60;;;;;;5132523;27;20031;-86
2021/01/19 00:21:50;;;;;;;63.90;22.17;;;-14.30;77.60;;;;;;5153128;27;20035;-86
2021/01/19 00:24:16;;;;;;;63.60;22.60;;;-14.30;77.60;;;;;;5115282;28;20027;-86
2021/01/19 00:26:41;;;;;;;60.87;22.47;;;-14.30;77.60;;;;;;5114944;28;20030;-87
2021/01/19 00:29:08;;;;;;;61.77;24.80;;;-14.30;77.70;;;;;;5115015;28;20097;-86
2021/01/19 00:31:33;;;;;;;62.53;20.93;;;-14.30;77.80;;;;;;5114647;28;20023;-86
2021/01/19 00:33:59;;;;;;;60.37;21.53;;;-14.30;77.80;;;;;;5114589;28;20035;-86
2021/01/19 00:36:25;;;;;;;63.20;21.30;;;-14.30;77.80;;;;;;5114179;28;20027;-86
2021/01/19 00:38:51;;;;;;;55.97;20.93;;;-14.30;78.00;;;;;;5116063;28;20115;-87
2021/01/19 00:41:18;;;;;;;56.77;21.00;;;-14.20;78.00;;;;;;5130980;27;20047;-86
2021/01/19 00:43:44;;;;;;;48.50;19.27;;;-14.20;77.80;;;;;;5114323;28;20552;-86
2021/01/19 00:46:10;;;;;;;47.87;18.57;;;-14.20;77.80;;;;;;5114497;28;20055;-87
2021/01/19 00:48:36;;;;;;;51.53;19.53;;;-14.20;78.00;;;;;;5097355;28;20031;-86
2021/01/19 00:51:01;;;;;;;47.77;19.03;;;-14.10;78.00;;;;;;5130930;27;20027;-86
2021/01/19 00:53:27;;;;;;;52.60;19.33;;;-14.10;78.10;;;;;;5131611;27;20031;-86
2021/01/19 00:55:53;;;;;;;59.80;23.27;;;-14.00;77.90;;;;;;5115159;28;20069;-86
2021/01/19 00:58:19;;;;;;;59.00;20.27;;;;;;;;;;5116055;27;20032;-86
2021/01/19 01:00:45;;;;;;;53.83;20.23;;;-14.00;77.30;;;;;;5093575;28;20470;-86
2021/01/19 01:03:11;;;;;;;58.47;20.20;;;-14.00;78.20;;;;;;5076228;28;20055;-86
2021/01/19 01:05:36;;;;;;;49.57;18.83;;;-14.00;77.90;;;;;;5094773;28;20028;-86
2021/01/19 01:08:02;;;;;;;50.13;19.07;;;-14.00;77.80;;;;;;5075985;28;20119;-87
2021/01/19 01:10:29;;;;;;;51.60;19.50;;;-14.00;77.60;;;;;;5093042;28;20016;-86
2021/01/19 01:12:54;;;;;;;47.93;21.17;;;-14.00;77.50;;;;;;5093877;28;20028;-86
2021/01/19 01:15:36;;;;;;;53.77;20.63;;;-13.80;77.60;;;;;;5095158;28;20038;-86
2021/01/19 01:18:11;;;;;;;53.27;19.60;;;-14.00;77.60;;;;;;5094097;28;20020;-87
2021/01/19 01:20:37;;;;;;;51.37;19.90;;;-13.10;78.20;;;;;;5086000;28;20088;-87
2021/01/19 01:23:03;;;;;;;56.47;21.83;;;-14.00;77.60;;;;;;5114103;28;20118;-86
2021/01/19 01:25:28;;;;;;;53.97;22.27;;;-13.90;78.10;;;;;;5131290;27;20490;-86
2021/01/19 01:27:54;;;;;;;52.13;19.57;;;-13.90;77.80;;;;;;5114264;28;20031;-87
2021/01/19 01:30:20;;;;;;;56.47;21.43;;;-14.00;77.80;;;;;;5130888;27;20061;-87
2021/01/19 01:32:49;;;;;;;50.70;20.70;;;-13.90;77.80;;;;;;5114962;28;20412;-86
2021/01/19 01:35:15;;;;;;;58.37;24.43;;;-13.90;77.60;;;;;;5130916;27;20023;-86
2021/01/19 01:37:55;;;;;;;63.53;22.27;;;-13.90;78.20;;;;;;5131153;27;20038;-86
2021/01/19 01:40:25;;;;;;;55.30;21.40;;;-13.90;77.70;;;;;;5111669;28;20366;-86
2021/01/19 01:43:14;;;;;;;48.63;20.77;;;-14.00;77.70;;;;;;5130648;27;20027;-86
2021/01/19 01:45:40;;;;;;;54.57;20.73;;;-14.00;78.00;;;;;;5114435;28;20036;-86
2021/01/19 01:48:09;;;;;;;51.60;20.23;;;-14.00;78.00;;;;;;5129227;27;20465;-87
2021/01/19 01:50:41;;;;;;;50.73;21.27;;;-13.80;77.90;;;;;;5115074;28;20526;-87
2021/01/19 01:53:14;;;;;;;51.17;20.23;;;-13.90;77.80;;;;;;5114808;28;20505;-86
2021/01/19 01:55:39;;;;;;;51.63;19.07;;;-13.20;78.10;;;;;;5131176;27;20536;-86
2021/01/19 01:58:05;;;;;;;52.00;19.27;;;-13.90;77.60;;;;;;5130408;27;20118;-87
2021/01/19 02:00:31;;;;;;;54.63;21.17;;;-13.30;77.60;;;;;;5130958;28;20114;-86
2021/01/19 02:02:59;;;;;;;53.70;19.93;;;-13.90;77.30;;;;;;5113382;28;20135;-86
2021/01/19 02:05:27;;;;;;;56.60;22.73;;;-13.70;77.30;;;;;;5114584;28;20030;-87
2021/01/19 02:08:29;;;;;;;66.37;24.53;;;-13.90;77.20;;;;;;5152182;27;20477;-86
2021/01/19 02:11:07;;;;;;;53.23;20.47;;;-14.10;78.00;;;;;;5081594;28;20040;-86
2021/01/19 02:13:54;;;;;;;53.87;19.50;;;-14.10;78.00;;;;;;5130183;28;20481;-86
2021/01/19 02:16:26;;;;;;;51.30;19.73;;;-14.00;77.90;;;;;;5129994;28;20444;-86
2021/01/19 02:19:39;;;;;;;64.80;20.50;;;-14.00;77.90;;;;;;5129767;27;20062;-86
2021/01/19 02:22:40;;;;;;;49.90;19.23;;;-13.90;77.80;;;;;;5096556;28;20477;-86
2021/01/19 02:25:13;;;;;;;;;;;-13.90;77.70;;;;;;5097308;28;20111;-86
2021/01/19 02:28:15;;;;;;;47.33;17.93;;;-13.90;77.50;;;;;;5096444;28;19912;-86
2021/01/19 02:31:00;;;;;;;49.67;20.10;;;-13.90;77.40;;;;;;5097026;28;20430;-86
2021/01/19 02:33:49;;;;;;;50.00;18.47;;;-13.90;77.50;;;;;;5096704;28;20028;-86
2021/01/19 02:36:49;;;;;;;57.90;21.63;;;-13.90;77.70;;;;;;5096174;28;20024;-86
2021/01/19 02:39:25;;;;;;;56.57;22.47;;;-13.90;77.80;;;;;;5097989;28;20031;-86
2021/01/19 02:41:54;;;;;;;47.63;18.80;;;-13.80;77.70;;;;;;5096285;28;20074;-86
2021/01/19 02:44:22;;;;;;;51.53;19.93;;;-13.90;77.70;;;;;;5097257;28;20024;-86
2021/01/19 02:46:59;;;;;;;48.40;19.83;;;-13.80;77.50;;;;;;5096035;28;20027;-86
2021/01/19 02:49:26;;;;;;;46.77;18.30;;;-13.80;77.30;;;;;;5096103;28;20047;-87
2021/01/19 02:51:54;;;;;;;52.80;19.23;;;-13.80;77.00;;;;;;5079409;28;20040;-86
2021/01/19 02:54:22;;;;;;;49.40;18.00;;;-13.80;77.50;;;;;;5097185;28;20078;-86
2021/01/19 02:57:06;;;;;;;56.23;22.23;;;-13.30;77.80;;;;;;5097293;28;20020;-86
2021/01/19 02:59:53;;;;;;;48.37;19.00;;;-13.70;77.40;;;;;;5095828;28;20023;-86
2021/01/19 03:02:26;;;;;;;47.43;18.83;;;-13.80;77.20;;;;;;5116605;28;20048;-86
2021/01/19 03:04:53;;;;;;;48.83;18.60;;;-13.80;77.40;;;;;;5117532;28;20016;-86
2021/01/19 03:07:26;;;;;;;46.30;19.30;;;-13.90;77.20;;;;;;5099369;28;20039;-85
2021/01/19 03:09:52;;;;;;;54.20;20.77;;;-13.80;77.30;;;;;;5117534;27;20023;-86
2021/01/19 03:12:19;;;;;;;54.70;19.60;;;-13.80;77.30;;;;;;5079151;28;20044;-86
2021/01/19 03:14:45;;;;;;;47.93;19.67;;;-13.80;77.30;;;;;;5096583;28;20024;-86
2021/01/19 03:17:12;;;;;;;44.27;19.20;;;-13.80;77.40;;;;;;5099491;28;20050;-86
2021/01/19 03:19:40;;;;;;;58.00;22.67;;;-13.80;77.40;;;;;;5133566;27;20524;-87
2021/01/19 03:22:08;;;;;;;50.13;19.07;;;-14.00;77.20;;;;;;5133235;27;20043;-87
2021/01/19 03:24:34;;;;;;;51.80;20.97;;;-13.90;78.10;;;;;;5116705;28;20046;-86
2021/01/19 03:27:00;;;;;;;46.40;19.57;;;-14.00;77.20;;;;;;5116666;28;20047;-85
2021/01/19 03:29:26;;;;;;;47.03;17.73;;;-13.90;77.10;;;;;;5116781;28;20031;-87
2021/01/19 03:31:51;;;;;;;47.90;20.10;;;-14.00;77.10;;;;;;5108766;28;20023;-86
2021/01/19 03:34:19;;;;;;;60.93;21.20;;;-14.00;77.20;;;;;;5133351;27;20389;-87
2021/01/19 03:36:45;;;;;;;53.63;20.37;;;-14.10;77.10;;;;;;5116027;28;20111;-86
2021/01/19 03:39:12;;;;;;;49.93;17.47;;;-14.10;77.20;;;;;;5116540;28;20034;-87
2021/01/19 03:41:38;;;;;;;46.47;18.43;;;-14.00;77.50;;;;;;5133541;27;20028;-86
2021/01/19 03:44:04;;;;;;;42.90;16.33;;;-14.10;77.40;;;;;;5116176;28;20046;-86
2021/01/19 03:46:31;;;;;;;48.13;16.77;;;-14.10;77.50;;;;;;5116955;28;20092;-87
2021/01/19 03:48:58;;;;;;;49.27;19.10;;;-14.10;77.70;;;;;;5116732;28;20020;-90
2021/01/19 03:51:25;;;;;;;46.10;19.90;;;-14.10;77.40;;;;;;5126222;28;20026;-89
2021/01/19 03:53:51;;;;;;;55.50;22.07;;;-14.10;77.20;;;;;;5128462;28;20028;-90
2021/01/19 03:56:17;;;;;;;44.13;17.57;;;-13.50;77.30;;;;;;5133201;27;20024;-90
2021/01/19 03:58:44;;;;;;;55.03;18.07;;;;;;;;;;5098831;28;20029;-90
2021/01/19 04:01:11;;;;;;;52.57;19.00;;;-14.30;76.50;;;;;;5078830;28;20028;-90
2021/01/19 04:03:37;;;;;;;47.73;18.57;;;-14.30;76.90;;;;;;5095017;28;20078;-90
2021/01/19 04:06:07;;;;;;;48.90;19.33;;;-14.30;76.90;;;;;;5095066;28;20024;-91
2021/01/19 04:08:35;;;;;;;48.08;19.40;;;-14.40;76.90;;;;;;5096228;28;20035;-90
2021/01/19 04:11:04;;;;;;;53.00;19.93;;;-14.40;77.00;;;;;;5096251;28;20086;-89
2021/01/19 04:13:32;;;;;;;48.00;18.40;;;-14.30;77.10;;;;;;5095772;28;20366;-91
2021/01/19 04:16:00;;;;;;;51.80;19.10;;;-14.50;77.00;;;;;;5096063;28;20103;-90
2021/01/19 04:18:26;;;;;;;50.03;20.07;;;-14.50;77.00;;;;;;5094594;28;20045;-90
2021/01/19 04:20:54;;;;;;;46.90;19.03;;;-14.50;77.10;;;;;;5081977;28;20031;-91
2021/01/19 04:23:19;;;;;;;51.43;19.00;;;-14.50;77.20;;;;;;5131650;27;20190;-91
2021/01/19 04:25:47;;;;;;;42.93;17.10;;;-13.50;77.40;;;;;;5110103;28;20115;-91
2021/01/19 04:28:14;;;;;;;44.57;18.33;;;-14.50;76.90;;;;;;5132441;27;20024;-91
2021/01/19 04:30:42;;;;;;;45.83;19.67;;;-14.40;76.90;;;;;;5115261;27;20027;-91
2021/01/19 04:33:13;;;;;;;72.20;25.37;;;-14.60;76.80;;;;;;5132039;27;20556;-92
2021/01/19 04:35:39;;;;;;;95.07;30.60;;;-14.60;76.70;;;;;;5107508;28;20060;-91
2021/01/19 04:38:07;;;;;;;96.03;40.43;;;-14.60;76.70;;;;;;5101722;28;20062;-91
2021/01/19 04:40:33;;;;;;;62.40;24.37;;;-14.70;76.80;;;;;;5124050;27;20043;-91
2021/01/19 04:42:59;;;;;;;58.27;24.10;;;-14.70;76.80;;;;;;5093292;28;20020;-91
2021/01/19 04:45:25;;;;;;;58.87;21.97;;;-14.70;76.90;;;;;;5094464;28;20020;-91
2021/01/19 04:47:52;;;;;;;51.20;20.27;;;-14.80;77.00;;;;;;5094242;28;20107;-91
2021/01/19 04:50:18;;;;;;;58.73;22.80;;;-14.60;77.20;;;;;;5093998;28;20474;-91
2021/01/19 04:52:45;;;;;;;47.57;18.80;;;-14.80;77.10;;;;;;5094154;28;20057;-91
2021/01/19 04:55:26;;;;;;;50.47;22.43;;;-14.90;77.10;;;;;;5077858;28;20427;-91
2021/01/19 04:57:59;;;;;;;56.97;20.27;;;-14.80;77.00;;;;;;5096894;28;20078;-91
2021/01/19 05:00:27;;;;;;;;;;;-14.80;77.10;;;;;;5095526;28;20061;-91
2021/01/19 05:03:21;;;;;;;48.20;17.70;;;-14.80;77.30;;;;;;5107474;28;19916;-91
2021/01/19 05:05:47;;;;;;;45.20;18.27;;;-14.90;78.10;;;;;;5094122;28;20492;-91
2021/01/19 05:08:16;;;;;;;52.50;19.33;;;-15.00;77.60;;;;;;5095531;28;20016;-91
2021/01/19 05:11:03;;;;;;;46.00;18.37;;;-14.90;77.50;;;;;;5101005;28;20461;-89
2021/01/19 05:13:55;;;;;;;65.33;24.33;;;-14.90;77.50;;;;;;5094108;28;20377;-89
2021/01/19 05:16:28;;;;;;;62.27;20.00;;;-15.00;77.80;;;;;;5094219;28;20024;-91
2021/01/19 05:18:55;;;;;;;53.83;18.27;;;-15.00;77.80;;;;;;5108111;28;20106;-90
2021/01/19 05:21:21;;;;;;;48.17;18.13;;;-14.90;77.50;;;;;;5114294;28;20416;-88
2021/01/19 05:23:48;;;;;;;49.93;18.97;;;-14.90;77.10;;;;;;5130974;27;20036;-86
2021/01/19 05:26:15;;;;;;;52.57;20.57;;;-14.60;77.20;;;;;;5131560;27;20416;-88
2021/01/19 05:28:43;;;;;;;52.13;21.40;;;-14.90;77.40;;;;;;5131506;27;20076;-89
2021/01/19 05:31:20;;;;;;;53.43;20.40;;;-14.90;77.50;;;;;;5131144;27;20043;-89
2021/01/19 05:34:04;;;;;;;53.30;19.57;;;-14.80;77.40;;;;;;5131340;27;20024;-90
2021/01/19 05:36:50;;;;;;;57.47;19.03;;;-14.80;77.30;;;;;;5138473;27;20096;-88
2021/01/19 05:39:20;;;;;;;64.83;22.20;;;-14.80;77.30;;;;;;5081980;28;20039;-89
2021/01/19 05:41:47;;;;;;;55.33;19.37;;;-14.80;77.30;;;;;;5077197;28;20032;-89
2021/01/19 05:44:21;;;;;;;51.27;20.37;;;-14.70;77.40;;;;;;5093491;28;20469;-89
2021/01/19 05:46:51;;;;;;;50.53;19.97;;;-14.70;77.60;;;;;;5093511;28;20032;-89
2021/01/19 05:49:24;;;;;;;;;;;-14.70;77.40;;;;;;5093600;28;20423;-90
2021/01/19 05:51:57;;;;;;;47.23;18.73;;;-14.70;77.10;;;;;;5093033;28;19904;-89
2021/01/19 05:54:26;;;;;;;52.60;19.90;;;-14.70;76.90;;;;;;5093059;28;20031;-90
2021/01/19 05:57:01;;;;;;;53.43;20.53;;;-14.60;76.80;;;;;;5093613;28;20020;-87
2021/01/19 05:59:38;;;;;;;50.73;19.57;;;-14.60;76.80;;;;;;5095036;28;20020;-88
2021/01/19 06:02:10;;;;;;;52.33;19.77;;;-14.70;76.50;;;;;;5093208;28;20039;-90
2021/01/19 06:04:43;;;;;;;56.37;20.37;;;-14.60;76.60;;;;;;5088753;28;20135;-89
2021/01/19 06:07:12;;;;;;;60.77;22.17;;;-14.60;76.60;;;;;;5093653;28;20063;-89
2021/01/19 06:09:39;;;;;;;60.87;21.30;;;-14.70;76.60;;;;;;5094518;28;20028;-89
2021/01/19 06:12:06;;;;;;;46.80;18.90;;;-14.60;76.40;;;;;;5094376;28;20715;-89
2021/01/19 06:14:35;;;;;;;56.37;21.27;;;-14.70;76.10;;;;;;5093102;28;20032;-88
2021/01/19 06:17:12;;;;;;;51.30;19.03;;;-14.70;76.10;;;;;;5092968;28;20035;-89
2021/01/19 06:19:41;;;;;;;48.03;17.73;;;-14.70;76.60;;;;;;5094054;28;20023;-89
2021/01/19 06:22:23;;;;;;;54.80;19.70;;;-14.60;76.80;;;;;;5093785;28;20024;-89
2021/01/19 06:24:51;;;;;;;47.07;19.30;;;-14.60;76.60;;;;;;5075901;28;20113;-89
2021/01/19 06:27:23;;;;;;;59.97;19.97;;;-14.60;76.70;;;;;;5075223;28;20532;-89
2021/01/19 06:30:01;;;;;;;50.40;20.43;;;-14.50;76.60;;;;;;5093270;28;20013;-89
2021/01/19 06:32:47;;;;;;;52.80;20.67;;;-14.60;76.70;;;;;;5077786;28;20079;-89
2021/01/19 06:35:16;;;;;;;56.23;21.57;;;-14.50;76.50;;;;;;5092652;28;20062;-88
2021/01/19 06:37:43;;;;;;;58.23;21.63;;;-14.60;76.50;;;;;;5093840;28;20143;-90
2021/01/19 06:40:13;;;;;;;69.13;25.30;;;-14.50;76.70;;;;;;5093917;28;20374;-93
2021/01/19 06:42:41;;;;;;;57.53;23.67;;;-14.60;76.50;;;;;;5092578;28;20029;-89
2021/01/19 06:45:10;;;;;;;58.27;21.63;;;-14.50;76.90;;;;;;5092962;28;20031;-88
2021/01/19 06:47:46;;;;;;;56.60;23.30;;;-14.50;76.90;;;;;;5092804;28;20040;-88
2021/01/19 06:50:12;;;;;;;49.30;21.03;;;-14.40;76.70;;;;;;5091257;28;20024;-89
2021/01/19 06:52:42;;;;;;;47.77;19.10;;;-14.50;76.70;;;;;;5091078;28;20028;-88
2021/01/19 06:55:22;;;;;;;50.72;20.77;;;-14.40;76.80;;;;;;5072882;28;20068;-88
2021/01/19 06:58:08;;;;;;;60.13;22.63;;;-14.40;76.50;;;;;;5089385;28;20043;-89
2021/01/19 07:00:39;;;;;;;59.23;20.70;;;-14.40;76.10;;;;;;5089603;28;20032;-88
2021/01/19 07:03:23;;;;;;;56.23;23.17;;;-14.40;76.00;;;;;;5089147;28;20044;-88
2021/01/19 07:06:10;;;;;;;57.57;22.80;;;-14.40;75.90;;;;;;5090937;28;20024;-88
2021/01/19 07:09:03;;;;;;;56.53;22.13;;;-14.50;76.00;;;;;;5093731;28;20035;-88
2021/01/19 07:11:38;;;;;;;53.77;21.47;;;-14.50;76.00;;;;;;5090401;28;20038;-88
2021/01/19 07:14:14;;;;;;;50.43;19.30;;;-14.50;76.10;;;;;;5097703;28;20032;-88
2021/01/19 07:16:55;;;;;;;51.33;19.03;;;-14.50;76.20;;;;;;5079900;28;20028;-88
2021/01/19 07:19:43;;;;;;;50.65;20.02;;;-14.50;76.40;;;;;;5097785;28;20032;-88
2021/01/19 07:22:29;;;;;;;55.80;21.93;;;-14.40;76.30;;;;;;5109957;28;20031;-90
2021/01/19 07:24:56;;;;;;;50.70;19.03;;;-14.40;76.00;;;;;;5082472;28;20388;-88
2021/01/19 07:27:24;;;;;;;56.43;21.20;;;-14.40;76.20;;;;;;5096136;28;20039;-88
2021/01/19 07:29:51;;;;;;;57.63;21.73;;;-14.30;76.10;;;;;;5097201;28;20108;-88
2021/01/19 07:32:37;;;;;;;59.23;21.43;;;-14.30;75.70;;;;;;5097270;28;20024;-88
2021/01/19 07:35:05;;;;;;;53.97;20.97;;;-14.30;75.80;;;;;;5096427;28;20527;-87
2021/01/19 07:37:36;;;;;;;51.13;22.57;;;-14.30;75.80;;;;;;5096235;28;20027;-87
2021/01/19 07:40:17;;;;;;;49.50;20.50;;;-14.30;75.70;;;;;;5096087;28;20032;-87
2021/01/19 07:42:44;;;;;;;51.47;20.07;;;-14.30;75.80;;;;;;5096224;28;20028;-87
2021/01/19 07:45:11;;;;;;;49.57;18.93;;;-14.20;75.50;;;;;;5096224;28;20027;-87
2021/01/19 07:47:43;;;;;;;48.70;20.00;;;-14.30;75.60;;;;;;5078992;28;20031;-87
2021/01/19 07:50:16;;;;;;;52.67;22.53;;;-14.20;75.80;;;;;;5096072;28;20031;-87
2021/01/19 07:52:44;;;;;;;46.77;18.30;;;-14.30;75.50;;;;;;5079322;28;20021;-87
2021/01/19 07:55:23;;;;;;;48.30;19.60;;;-14.20;75.90;;;;;;5095748;28;20040;-87
2021/01/19 07:57:53;;;;;;;51.33;20.37;;;-14.10;75.70;;;;;;5095966;28;20025;-87
2021/01/19 08:00:25;;;;;;;55.00;21.33;;;-14.00;75.90;;;;;;5091203;28;20020;-86
2021/01/19 08:03:04;;;;;;;53.03;20.47;;;-14.00;75.60;;;;;;5096358;28;20093;-87
2021/01/19 08:05:32;;;;;;;48.47;20.67;;;-13.90;75.60;;;;;;5095427;28;20061;-87
2021/01/19 08:07:59;;;;;;;51.37;21.27;;;-13.80;75.30;;;;;;5095533;28;20066;-87
2021/01/19 08:10:35;;;;;;;48.53;19.80;;;-13.80;74.70;;;;;;5079042;28;20169;-87
2021/01/19 08:13:02;;;;;;;46.37;18.10;;;-13.80;74.70;;;;;;5077401;28;20032;-87
2021/01/19 08:15:32;;;;;;;46.63;19.73;;;-13.70;74.70;;;;;;5094025;28;20052;-87
2021/01/19 08:18:01;;;;;;;49.47;20.40;;;-13.70;74.60;;;;;;5076712;28;20032;-86
2021/01/19 08:20:36;;;;;;;50.20;21.10;;;-13.70;74.40;;;;;;5093928;28;20474;-86
2021/01/19 08:23:24;;;;;;;59.20;23.37;;;-13.60;74.20;;;;;;5093314;28;20028;-87
2021/01/19 08:25:50;;;;;;;52.13;20.67;;;-13.50;74.10;;;;;;5093629;28;20024;-87
2021/01/19 08:28:18;;;;;;;55.63;22.53;;;-13.50;74.20;;;;;;5094348;28;20035;-87
2021/01/19 08:30:45;;;;;;;49.03;20.73;;;-13.50;73.10;;;;;;5093639;28;20093;-87
2021/01/19 08:33:12;;;;;;;51.43;20.77;;;-13.50;73.30;;;;;;5093297;28;20075;-87
2021/01/19 08:35:39;;;;;;;49.63;20.90;;;-13.50;73.70;;;;;;5093381;28;20016;-87
2021/01/19 08:38:05;;;;;;;106.07;37.77;;;-13.40;73.90;;;;;;5093435;28;20477;-87
2021/01/19 08:40:33;;;;;;;105.97;35.10;;;-13.40;73.90;;;;;;5092870;28;20024;-87
2021/01/19 08:43:04;;;;;;;63.40;24.17;;;-13.20;74.00;;;;;;5076720;28;20534;-88
2021/01/19 08:45:35;;;;;;;63.77;25.23;;;-13.20;73.10;;;;;;5076354;28;20024;-87
2021/01/19 08:48:01;;;;;;;;;;;-13.20;72.40;;;;;;5093628;28;20169;-87
2021/01/19 08:50:30;;;;;;;249.57;74.43;;;-13.20;72.80;;;;;;5092610;28;19904;-88
2021/01/19 08:52:56;;;;;;;184.23;58.43;;;-13.20;72.60;;;;;;5092995;28;20431;-88
2021/01/19 08:55:25;;;;;;;120.30;42.57;;;-13.10;72.70;;;;;;5092886;28;20031;-89
2021/01/19 08:57:58;;;;;;;204.13;67.57;;;-13.10;72.60;;;;;;5092849;28;20028;-89
2021/01/19 09:00:37;;;;;;;184.53;60.80;;;-13.00;72.80;;;;;;5094235;28;20028;-88
2021/01/19 09:03:17;;;;;;;239.73;68.47;;;-13.00;72.50;;;;;;5095716;28;20050;-87
2021/01/19 09:05:43;;;;;;;184.17;54.73;;;-12.90;71.90;;;;;;5110978;28;20020;-88
2021/01/19 09:08:19;;;;;;;401.47;116.00;;;-12.90;71.80;;;;;;5092682;28;20026;-87
2021/01/19 09:10:45;;;;;;;145.03;46.70;;;-12.80;71.40;;;;;;5075875;28;20032;-87
2021/01/19 09:13:12;;;;;;;134.10;45.17;;;-12.80;71.20;;;;;;5077539;28;20028;-87
2021/01/19 09:15:40;;;;;;;85.50;31.20;;;-12.80;70.80;;;;;;5095503;28;20028;-87
2021/01/19 09:18:13;;;;;;;109.83;35.87;;;-12.70;70.60;;;;;;5077611;28;20381;-87
2021/01/19 09:20:43;;;;;;;103.70;39.50;;;-12.70;69.60;;;;;;5095364;28;20050;-87
2021/01/19 09:23:16;;;;;;;76.20;27.10;;;-12.80;70.10;;;;;;5077324;28;20039;-87
2021/01/19 09:25:46;;;;;;;100.93;35.43;;;-12.70;70.90;;;;;;5095005;28;20077;-87
2021/01/19 09:28:14;;;;;;;70.97;27.30;;;-12.60;70.90;;;;;;5076889;28;20118;-87
2021/01/19 09:30:40;;;;;;;52.47;21.23;;;-12.70;69.80;;;;;;5094089;28;20024;-86
2021/01/19 09:33:10;;;;;;;48.77;19.90;;;-12.60;70.40;;;;;;5094164;28;20123;-87
2021/01/19 09:35:39;;;;;;;49.08;20.02;;;-12.50;70.20;;;;;;5095005;28;20039;-87
2021/01/19 09:38:17;;;;;;;51.67;18.70;;;-12.50;70.00;;;;;;5094980;28;20035;-87
2021/01/19 09:40:43;;;;;;;60.17;25.23;;;-12.40;70.30;;;;;;5093727;28;20032;-87
2021/01/19 09:43:14;;;;;;;74.73;27.87;;;-12.30;70.40;;;;;;5093306;28;20077;-87
2021/01/19 09:45:41;;;;;;;61.75;23.27;;;-11.30;70.80;;;;;;5094003;28;20023;-87
2021/01/19 09:48:09;;;;;;;58.27;24.13;;;-12.20;69.20;;;;;;5093882;28;20080;-87
2021/01/19 09:50:35;;;;;;;55.63;22.37;;;-12.20;69.20;;;;;;5095188;28;20016;-87
2021/01/19 09:53:00;;;;;;;54.43;21.93;;;-12.20;69.20;;;;;;5076322;28;20500;-88
2021/01/19 09:55:30;;;;;;;60.70;25.03;;;-12.20;69.00;;;;;;5076707;28;20597;-88
2021/01/19 09:57:58;;;;;;;60.42;26.30;;;-12.10;68.80;;;;;;5093510;28;20024;-88
2021/01/19 10:00:39;;;;;;;56.10;25.07;;;-12.10;69.20;;;;;;5094863;28;20024;-88
2021/01/19 10:03:20;;;;;;;48.63;19.90;;;-12.20;67.20;;;;;;5093485;28;20052;-87
2021/01/19 10:06:01;;;;;;;51.10;20.17;;;-12.20;68.30;;;;;;5093675;28;20035;-87
2021/01/19 10:08:26;;;;;;;;;;;-12.20;68.60;;;;;;5089547;28;20474;-87
2021/01/19 10:10:53;;;;;;;53.97;22.30;;;-12.20;68.40;;;;;;5093475;28;19904;-87
2021/01/19 10:13:27;;;;;;;50.23;20.80;;;-12.30;67.90;;;;;;5091787;28;20470;-87
2021/01/19 10:16:03;;;;;;;46.30;21.00;;;-12.10;68.30;;;;;;5090294;28;20036;-87
2021/01/19 10:18:30;;;;;;;56.70;23.37;;;-12.20;67.40;;;;;;5074932;28;20028;-87
2021/01/19 10:20:56;;;;;;;65.40;25.00;;;-12.20;67.10;;;;;;5091629;28;20036;-87
2021/01/19 10:23:33;;;;;;;112.00;33.67;;;-12.20;68.00;;;;;;5075060;28;20044;-87
2021/01/19 10:26:10;;;;;;;75.63;26.47;;;-12.20;67.30;;;;;;5091614;28;20020;-87
2021/01/19 10:28:45;;;;;;;57.37;23.17;;;-12.10;68.80;;;;;;5091814;28;20048;-87
2021/01/19 10:31:22;;;;;;;84.70;30.03;;;-12.00;68.70;;;;;;5091737;28;20021;-88
2021/01/19 10:34:02;;;;;;;75.23;27.87;;;-11.90;67.70;;;;;;5091675;28;20028;-88
2021/01/19 10:36:40;;;;;;;60.43;24.90;;;-9.60;69.30;;;;;;5091811;28;20089;-88
2021/01/19 10:39:09;;;;;;;57.23;23.70;;;-10.40;68.70;;;;;;5092765;28;20032;-88
2021/01/19 10:41:36;;;;;;;65.57;25.47;;;-11.70;67.30;;;;;;5095782;28;20047;-88
2021/01/19 10:44:02;;;;;;;58.30;23.87;;;-10.40;68.70;;;;;;5096428;28;20020;-87
2021/01/19 10:46:31;;;;;;;62.45;26.90;;;-11.50;66.90;;;;;;5102977;28;20024;-88
2021/01/19 10:49:09;;;;;;;57.33;22.55;;;-11.50;67.30;;;;;;5108540;28;20028;-87
2021/01/19 10:51:36;;;;;;;55.92;20.90;;;-11.30;67.70;;;;;;5095873;28;20020;-87
2021/01/19 10:54:05;;;;;;;58.63;22.40;;;-11.30;68.20;;;;;;5078197;28;20535;-87
2021/01/19 10:56:31;;;;;;;59.60;24.33;;;-10.40;65.70;;;;;;5095803;28;20138;-88
2021/01/19 10:58:57;;;;;;;51.60;20.88;;;-11.80;65.10;;;;;;5094984;28;20032;-87
2021/01/19 11:01:25;;;;;;;49.72;22.50;;;-11.70;65.80;;;;;;5094942;28;20496;-87
2021/01/19 11:03:51;;;;;;;42.90;18.33;;;-11.60;66.40;;;;;;5078170;28;20044;-87
2021/01/19 11:06:17;;;;;;;40.63;17.58;;;-11.60;66.00;;;;;;5077969;28;20082;-87
2021/01/19 11:08:43;;;;;;;60.63;26.30;;;-11.60;66.00;;;;;;5097719;28;20025;-86
2021/01/19 11:11:13;;;;;;;50.17;21.42;;;-11.70;66.40;;;;;;5099105;28;20416;-87
2021/01/19 11:13:39;;;;;;;45.85;20.98;;;-11.80;65.70;;;;;;5096789;28;20358;-86
2021/01/19 11:16:06;;;;;;;50.03;21.30;;;-11.70;66.90;;;;;;5096724;28;20441;-87
2021/01/19 11:18:34;;;;;;;48.67;20.43;;;-11.80;65.40;;;;;;5097770;28;20024;-87
2021/01/19 11:21:01;;;;;;;46.75;19.52;;;-11.60;66.80;;;;;;5096877;28;20073;-87
2021/01/19 11:23:27;;;;;;;44.75;17.42;;;-11.70;66.20;;;;;;5097707;28;20039;-87
2021/01/19 11:25:53;;;;;;;45.00;19.05;;;-11.70;66.40;;;;;;5079569;28;20102;-87
2021/01/19 11:28:20;;;;;;;43.20;19.33;;;-11.70;65.60;;;;;;5096162;28;20115;-87
2021/01/19 11:30:47;;;;;;;45.93;18.03;;;-11.90;66.50;;;;;;5079825;28;20039;-87
2021/01/19 11:33:14;;;;;;;40.13;16.83;;;-11.80;66.00;;;;;;5096282;28;20069;-88
2021/01/19 11:35:40;;;;;;;44.30;18.73;;;-11.80;66.20;;;;;;5096123;28;20030;-88
2021/01/19 11:38:06;;;;;;;45.65;17.95;;;-11.80;66.30;;;;;;5097584;28;20024;-88
2021/01/19 11:40:32;;;;;;;44.57;18.33;;;-11.80;66.30;;;;;;5079534;28;20032;-88
2021/01/19 11:42:58;;;;;;;49.45;20.70;;;-11.80;66.80;;;;;;5096211;28;20020;-89
2021/01/19 11:45:24;;;;;;;55.22;22.98;;;-11.80;66.40;;;;;;5079846;28;20546;-88
2021/01/19 11:47:50;;;;;;;49.23;21.23;;;-9.80;68.20;;;;;;5096197;28;20473;-88
2021/01/19 11:50:16;;;;;;;48.58;19.27;;;-11.70;66.60;;;;;;5095881;28;20028;-88
2021/01/19 11:52:45;;;;;;;51.93;20.90;;;-11.80;65.90;;;;;;5096470;28;20087;-86
2021/01/19 11:55:11;;;;;;;75.03;25.75;;;-11.80;66.10;;;;;;5081918;28;20028;-88
2021/01/19 11:57:38;;;;;;;51.65;22.67;;;-11.70;66.40;;;;;;5095908;28;20470;-87
2021/01/19 12:00:09;;;;;;;46.78;20.17;;;-11.70;66.30;;;;;;5095480;28;20028;-88
2021/01/19 12:02:36;;;;;;;41.22;18.30;;;-11.70;66.80;;;;;;5096625;28;20046;-88
2021/01/19 12:05:03;;;;;;;38.85;17.33;;;-11.60;67.10;;;;;;5095694;28;20020;-88
2021/01/19 12:07:29;;;;;;;47.67;20.33;;;-11.50;66.10;;;;;;5095977;28;20103;-88
2021/01/19 12:09:54;;;;;;;57.33;25.55;;;-11.50;65.90;;;;;;5095580;28;20488;-88
2021/01/19 12:12:21;;;;;;;59.33;22.70;;;-12.30;66.00;;;;;;5077394;28;20028;-88
2021/01/19 12:14:46;;;;;;;53.83;21.05;;;-11.30;66.50;;;;;;5077231;28;20056;-88
2021/01/19 12:17:13;;;;;;;48.58;18.13;;;-11.30;67.10;;;;;;5093730;28;20105;-86
2021/01/19 12:19:40;;;;;;;52.35;21.05;;;-11.20;65.70;;;;;;5095018;28;20034;-87
2021/01/19 12:22:06;;;;;;;49.53;19.27;;;-11.60;64.50;;;;;;5093775;28;20059;-87
2021/01/19 12:24:34;;;;;;;47.00;20.10;;;-11.20;65.20;;;;;;5094085;28;20458;-88
2021/01/19 12:27:00;;;;;;;42.25;17.75;;;-11.10;65.30;;;;;;5077880;28;20062;-88
2021/01/19 12:29:27;;;;;;;43.35;15.05;;;-11.30;64.80;;;;;;5080987;28;20461;-89
2021/01/19 12:32:00;;;;;;;35.28;14.52;;;-11.30;65.30;;;;;;5084002;28;20020;-88
2021/01/19 12:34:26;;;;;;;46.13;16.58;;;-11.30;65.10;;;;;;5093119;28;20030;-88
2021/01/19 12:36:52;;;;;;;58.33;22.95;;;-11.50;64.50;;;;;;5093467;28;20028;-88